Date,TemperatureHighF,TemperatureAvgF,TemperatureLowF,DewpointHighF,DewpointAvgF,DewpointLowF,HumidityHigh,HumidityAvg,HumidityLow,PressureMaxIn,PressureMinIn,WindSpeedMaxMPH,WindSpeedAvgMPH,GustSpeedMaxMPH,PrecipitationSumIn
2013-4-1,43,35,24,41,24,8,93,67,36,0.00,40.00,10,6,25,0.17
2013-4-2,35,27,21,21,14,9,87,61,37,0.00,40.00,8,4,23,0.09
2013-4-3,35,28,23,21,14,10,85,58,39,0.00,40.00,9,5,24,0.03
2013-4-4,57,35,16,17,9,-3,90,46,9,0.00,40.00,7,3,17,0.00
2013-4-5,46,37,26,25,19,6,76,50,24,0.00,40.00,10,5,24,0.00
2013-4-6,54,38,20,20,13,4,88,44,14,0.00,40.00,7,4,16,0.00
2013-4-7,71,55,42,44,30,13,80,40,25,0.00,40.00,11,8,29,0.00
2013-4-8,70,52,30,46,37,29,97,63,28,0.00,40.00,10,4,25,0.00
2013-4-9,75,61,46,50,44,38,84,57,32,0.00,40.00,7,4,21,0.00
2013-4-10,67,55,44,60,52,43,99,90,68,0.00,40.00,7,2,21,1.14
2013-4-11,44,42,40,44,40,35,99,92,83,0.00,40.00,4,2,12,0.47
2013-4-12,54,46,38,53,44,32,95,91,79,0.00,40.00,10,6,23,0.79
2013-4-13,44,39,34,34,31,27,92,73,56,0.00,40.00,8,4,18,0.04
2013-4-14,48,40,32,33,30,28,86,70,50,0.00,40.00,6,2,14,0.04
2013-4-15,72,56,38,46,39,32,80,54,34,0.00,40.00,12,7,24,0.00
2013-4-16,68,57,47,57,50,44,92,80,61,0.00,40.00,10,6,26,0.33
2013-4-17,67,53,40,45,36,31,93,58,28,0.00,40.00,7,3,13,0.02
2013-4-18,78,66,55,57,49,31,74,56,38,0.00,40.00,14,9,30,0.00
2013-4-19,67,58,40,59,49,29,91,72,63,0.00,40.00,13,9,27,0.46
2013-4-20,40,36,30,31,24,17,79,63,47,0.00,40.00,10,6,24,0.03
2013-4-21,53,37,22,24,20,16,94,57,24,0.00,40.00,6,2,15,0.01
2013-4-22,63,48,34,26,22,19,57,37,22,0.00,40.00,8,5,19,0.00
2013-4-23,72,53,36,33,28,21,69,43,20,0.00,40.00,7,6,18,0.00
2013-4-24,59,48,34,54,41,31,91,76,42,0.00,40.00,11,6,33,0.36
2013-4-25,55,43,34,37,30,24,95,66,31,0.00,40.00,8,4,23,0.08
2013-4-26,59,44,31,39,29,23,98,66,26,0.00,40.00,6,2,11,0.07
2013-4-27,74,52,31,31,28,25,89,48,16,0.00,40.00,5,2,11,0.00
2013-4-28,65,54,48,48,39,-100,90,62,39,0.00,40.00,11,7,26,0.16
2013-4-29,57,51,48,51,47,44,93,86,78,0.00,40.00,9,6,20,0.21
2013-4-30,69,63,54,52,49,47,93,62,49,0.00,40.00,9,7,23,0.01